Terminal Aerodrome Forecast
Issued by NWS Corpus Christi, TX

Home | Current Version | Previous Version | Text Only | Print | Product List | Glossary On
Versions: 1 2 3 4 5 6 7 8 9 10 11 12 13 14 15 16 17 18 19 20
000
FTUS44 KCRP 011124
TAFCRP
TAF
KCRP 011124Z 0112/0212 10007KT P6SM SCT012 BKN025
      TEMPO 0112/0115 5SM BR BKN012 OVC025
     FM011500 10009KT 6SM HZ VCSH BKN015 OVC030
     FM011900 12012KT P6SM BKN030
     FM020200 11010KT 5SM HZ BKN015
     FM020600 07008KT 5SM BR VCSH OVC011
      TEMPO 0206/0210 4SM TSRA OVC008CB
     FM021000 02011KT 5SM -SHRA OVC007=

USA.gov is the U.S. government's official web portal to all federal, state and local government web resources and services.